Time;durP1;ratioP1;P1;durP2;ratioP2;P2;SDS_P1;SDS_P2;PMS_P1;PMS_P2;Temp;Humidity;BMP_temperature;BMP_pressure;BME280_temperature;BME280_humidity;BME280_pressure;Samples;Min_cycle;Max_cycle;Signal;HPM_P1;HPM_P2
2023/08/08 00:00:40;;;;;;;8.93;3.13;;;;;;;;;;5089029;28;20040;-77
2023/08/08 00:03:06;;;;;;;8.63;3.25;;;;;;;;;;5064877;28;20060;-77
2023/08/08 00:05:32;;;;;;;6.88;2.80;;;;;;;;;;5082312;28;20135;-77
2023/08/08 00:07:58;;;;;;;7.38;2.97;;;;;;;;;;5092084;28;20436;-77
2023/08/08 00:10:24;;;;;;;6.75;2.97;;;;;;;;;;5078085;28;20040;-77
2023/08/08 00:12:51;;;;;;;7.13;3.00;;;;;;;;;;5069704;28;20067;-77
2023/08/08 00:15:17;;;;;;;9.20;3.40;;;;;;;;;;5053499;28;20480;-78
2023/08/08 00:17:43;;;;;;;10.00;3.33;;;;;;;;;;5080175;28;20040;-77
2023/08/08 00:20:09;;;;;;;8.85;3.40;;;;;;;;;;5061394;28;20052;-76
2023/08/08 00:22:35;;;;;;;9.35;3.65;;;;;;;;;;5067442;28;20513;-77
2023/08/08 00:25:01;;;;;;;5.90;3.60;;;;;;;;;;5081199;28;20045;-76
2023/08/08 00:27:28;;;;;;;6.25;3.28;;;;;;;;;;5071625;28;20071;-76
2023/08/08 00:29:54;;;;;;;6.10;3.30;;;;;;;;;;5061126;28;20040;-76
2023/08/08 00:32:20;;;;;;;9.23;3.38;;;;;;;;;;5073686;28;20036;-76
2023/08/08 00:34:47;;;;;;;8.93;3.80;;;;;;;;;;5076448;28;20099;-78
2023/08/08 00:37:13;;;;;;;7.40;3.60;;;;;;;;;;5071862;28;20033;-77
2023/08/08 00:39:42;;;;;;;9.15;3.78;;;;;;;;;;5072672;28;20067;-77
2023/08/08 00:42:08;;;;;;;7.85;3.80;;;;;;;;;;5053731;28;20076;-78
2023/08/08 00:44:34;;;;;;;6.30;3.45;;;;;;;;;;5054982;28;20390;-77
2023/08/08 00:47:01;;;;;;;10.43;3.97;;;;;;;;;;5057783;28;20044;-75
2023/08/08 00:49:27;;;;;;;9.02;3.63;;;;;;;;;;5085347;28;20060;-74
2023/08/08 00:51:54;;;;;;;7.63;3.63;;;;;;;;;;5084182;28;20044;-76
2023/08/08 00:54:21;;;;;;;6.75;3.67;;;;;;;;;;5077894;28;20037;-76
2023/08/08 00:56:47;;;;;;;7.20;3.75;;;;;;;;;;5072939;28;20051;-77
2023/08/08 00:59:14;;;;;;;7.53;3.47;;;;;;;;;;5067774;28;20048;-76
2023/08/08 01:01:40;;;;;;;6.28;3.60;;;;;;;;;;5076435;28;20064;-77
2023/08/08 01:04:06;;;;;;;7.90;3.58;;;;;;;;;;5085684;28;20098;-77
2023/08/08 01:06:35;;;;;;;7.53;3.80;;;;;;;;;;5075082;28;20120;-77
2023/08/08 01:09:05;;;;;;;6.40;3.40;;;;;;;;;;5090266;28;20056;-76
2023/08/08 01:11:33;;;;;;;7.15;3.67;;;;;;;;;;5057199;28;20044;-76
2023/08/08 01:14:00;;;;;;;6.43;3.50;;;;;;;;;;5074998;28;20047;-76
2023/08/08 01:16:26;;;;;;;7.15;3.58;;;;;;;;;;5074873;28;20048;-77
2023/08/08 01:18:53;;;;;;;6.25;3.50;;;;;;;;;;5074821;28;20055;-76
2023/08/08 01:21:19;;;;;;;11.00;4.00;;;;;;;;;;5091820;28;20044;-76
2023/08/08 01:23:56;;;;;;;6.85;3.70;;;;;;;;;;5092861;28;20044;-77
2023/08/08 01:26:23;;;;;;;8.45;3.70;;;;;;;;;;5074365;28;20392;-76
2023/08/08 01:28:52;;;;;;;7.88;3.80;;;;;;;;;;5077257;28;20055;-77
2023/08/08 01:31:18;;;;;;;6.80;3.75;;;;;;;;;;5094857;28;20074;-77
2023/08/08 01:33:44;;;;;;;5.88;3.40;;;;;;;;;;5095195;28;20093;-77
2023/08/08 01:36:13;;;;;;;9.75;3.70;;;;;;;;;;5074186;28;20048;-77
2023/08/08 01:38:47;;;;;;;9.27;3.63;;;;;;;;;;5086687;28;20105;-76
2023/08/08 01:41:13;;;;;;;9.43;3.85;;;;;;;;;;5086987;28;20052;-76
2023/08/08 01:43:39;;;;;;;7.82;3.50;;;;;;;;;;5089885;28;20552;-76
2023/08/08 01:46:06;;;;;;;8.23;3.63;;;;;;;;;;5093748;28;20044;-76
2023/08/08 01:48:32;;;;;;;8.20;3.47;;;;;;;;;;5087417;28;20047;-77
2023/08/08 01:50:58;;;;;;;8.77;3.33;;;;;;;;;;5076136;28;20066;-76
2023/08/08 01:53:24;;;;;;;7.45;3.17;;;;;;;;;;5092054;28;20455;-77
2023/08/08 01:55:52;;;;;;;6.50;3.42;;;;;;;;;;5082495;28;20068;-77
2023/08/08 01:58:18;;;;;;;10.48;3.67;;;;;;;;;;5089396;28;20044;-76
2023/08/08 02:00:46;;;;;;;7.57;3.38;;;;;;;;;;5080608;28;20044;-77
2023/08/08 02:03:12;;;;;;;9.20;3.72;;;;;;;;;;5090584;28;20067;-77
2023/08/08 02:05:38;;;;;;;9.00;3.20;;;;;;;;;;5090600;28;20045;-77
2023/08/08 02:08:05;;;;;;;6.88;3.40;;;;;;;;;;5075438;28;20052;-78
2023/08/08 02:10:31;;;;;;;8.55;3.60;;;;;;;;;;5055772;28;20059;-77
2023/08/08 02:12:57;;;;;;;6.40;3.65;;;;;;;;;;5074099;28;20080;-77
2023/08/08 02:15:24;;;;;;;11.15;3.92;;;;;;;;;;5067748;28;20048;-77
2023/08/08 02:17:50;;;;;;;8.10;3.70;;;;;;;;;;5073967;28;20381;-78
2023/08/08 02:20:17;;;;;;;9.27;4.03;;;;;;;;;;5077478;28;20060;-78
2023/08/08 02:22:44;;;;;;;8.52;3.83;;;;;;;;;;5093769;28;20126;-78
2023/08/08 02:25:10;;;;;;;10.60;3.85;;;;;;;;;;5092694;28;20035;-77
2023/08/08 02:27:36;;;;;;;9.00;3.78;;;;;;;;;;5074939;28;20051;-77
2023/08/08 02:30:02;;;;;;;10.25;3.80;;;;;;;;;;5093162;28;20082;-78
2023/08/08 02:32:28;;;;;;;9.35;3.83;;;;;;;;;;5092358;28;20044;-78
2023/08/08 02:34:54;;;;;;;7.40;3.63;;;;;;;;;;5091072;28;20040;-77
2023/08/08 02:37:20;;;;;;;7.80;3.70;;;;;;;;;;5068968;28;20476;-78
2023/08/08 02:39:47;;;;;;;8.90;4.05;;;;;;;;;;5084793;28;20094;-78
2023/08/08 02:42:13;;;;;;;9.50;3.97;;;;;;;;;;5073125;28;20386;-78
2023/08/08 02:44:39;;;;;;;9.07;3.55;;;;;;;;;;5055388;28;20040;-78
2023/08/08 02:47:05;;;;;;;7.88;3.80;;;;;;;;;;5085461;28;20044;-77
2023/08/08 02:49:33;;;;;;;8.88;3.92;;;;;;;;;;5069176;28;20263;-77
2023/08/08 02:51:59;;;;;;;11.52;3.83;;;;;;;;;;5037017;28;20040;-78
2023/08/08 02:54:25;;;;;;;9.27;3.88;;;;;;;;;;5075004;28;21999;-77
2023/08/08 02:56:51;;;;;;;9.40;3.53;;;;;;;;;;5082007;28;20051;-77
2023/08/08 02:59:17;;;;;;;8.23;3.60;;;;;;;;;;5075119;28;20480;-77
2023/08/08 03:01:44;;;;;;;9.32;3.83;;;;;;;;;;5086836;28;20087;-77
2023/08/08 03:04:10;;;;;;;9.93;3.25;;;;;;;;;;5059664;28;20052;-77
2023/08/08 03:06:36;;;;;;;9.88;3.53;;;;;;;;;;5091518;28;20051;-77
2023/08/08 03:09:02;;;;;;;8.98;3.17;;;;;;;;;;5067259;28;20049;-77
2023/08/08 03:11:28;;;;;;;9.93;3.33;;;;;;;;;;5074686;28;20048;-78
2023/08/08 03:13:54;;;;;;;9.80;3.05;;;;;;;;;;5093202;28;20094;-77
2023/08/08 03:16:20;;;;;;;7.45;2.97;;;;;;;;;;5074714;28;20040;-77
2023/08/08 03:18:47;;;;;;;8.40;2.78;;;;;;;;;;5091060;28;20130;-78
2023/08/08 03:21:13;;;;;;;9.73;2.63;;;;;;;;;;5072462;28;20036;-78
2023/08/08 03:23:39;;;;;;;5.80;2.70;;;;;;;;;;5053839;28;20412;-77
2023/08/08 03:26:05;;;;;;;6.03;2.50;;;;;;;;;;5069876;28;20064;-77
2023/08/08 03:28:31;;;;;;;6.43;2.47;;;;;;;;;;5072879;28;20044;-77
2023/08/08 03:30:57;;;;;;;8.98;2.70;;;;;;;;;;5071999;28;20425;-77
2023/08/08 03:33:23;;;;;;;5.45;2.35;;;;;;;;;;5072652;28;20052;-77
2023/08/08 03:35:50;;;;;;;6.10;2.42;;;;;;;;;;5072229;28;20036;-77
2023/08/08 03:38:16;;;;;;;5.57;2.40;;;;;;;;;;5072672;28;20135;-77
2023/08/08 03:40:42;;;;;;;6.10;2.40;;;;;;;;;;5072130;28;20075;-78
2023/08/08 03:43:08;;;;;;;9.10;2.60;;;;;;;;;;5072526;28;20401;-76
2023/08/08 03:45:34;;;;;;;5.47;2.58;;;;;;;;;;5070308;28;20051;-77
2023/08/08 03:48:00;;;;;;;6.70;2.20;;;;;;;;;;5071509;28;20044;-77
2023/08/08 03:50:26;;;;;;;5.57;2.47;;;;;;;;;;5072099;28;20048;-77
2023/08/08 03:52:53;;;;;;;6.00;2.38;;;;;;;;;;5071073;28;20166;-76
2023/08/08 03:55:19;;;;;;;5.90;2.30;;;;;;;;;;5071907;28;20052;-76
2023/08/08 03:57:45;;;;;;;7.72;2.38;;;;;;;;;;5072171;28;20047;-76
2023/08/08 04:00:11;;;;;;;7.85;2.40;;;;;;;;;;5071991;28;20382;-76
2023/08/08 04:02:38;;;;;;;7.80;2.10;;;;;;;;;;5070806;28;20092;-76
2023/08/08 04:05:05;;;;;;;5.95;2.22;;;;;;;;;;5065859;28;20040;-76
2023/08/08 04:07:31;;;;;;;5.90;2.60;;;;;;;;;;5074341;28;20040;-76
2023/08/08 04:09:57;;;;;;;5.93;2.40;;;;;;;;;;5094671;28;20079;-75
2023/08/08 04:12:23;;;;;;;7.50;2.38;;;;;;;;;;5099726;28;20408;-74
2023/08/08 04:14:50;;;;;;;4.75;2.28;;;;;;;;;;5096805;28;20519;-76
2023/08/08 04:17:16;;;;;;;6.35;2.25;;;;;;;;;;5092267;28;20040;-76
2023/08/08 04:19:42;;;;;;;8.23;2.30;;;;;;;;;;5092399;28;20135;-76
2023/08/08 04:22:08;;;;;;;6.00;2.50;;;;;;;;;;5092420;28;20039;-77
2023/08/08 04:24:34;;;;;;;5.22;2.70;;;;;;;;;;5091855;28;20047;-77
2023/08/08 04:27:00;;;;;;;8.68;2.58;;;;;;;;;;5073901;28;20137;-76
2023/08/08 04:29:26;;;;;;;4.43;2.33;;;;;;;;;;5093548;28;20044;-76
2023/08/08 04:31:52;;;;;;;7.85;2.80;;;;;;;;;;5096496;28;20043;-76
2023/08/08 04:34:19;;;;;;;7.72;2.35;;;;;;;;;;5060982;28;20105;-77
2023/08/08 04:36:45;;;;;;;6.72;2.60;;;;;;;;;;5096020;28;20044;-77
2023/08/08 04:39:11;;;;;;;6.05;2.20;;;;;;;;;;5096233;28;20040;-78
2023/08/08 04:41:37;;;;;;;7.57;2.50;;;;;;;;;;5095639;28;20044;-77
2023/08/08 04:44:03;;;;;;;7.10;2.30;;;;;;;;;;5076418;28;20059;-77
2023/08/08 04:46:29;;;;;;;6.43;2.40;;;;;;;;;;5077312;28;20632;-76
2023/08/08 04:48:55;;;;;;;8.35;2.30;;;;;;;;;;5096015;28;20182;-77
2023/08/08 04:51:21;;;;;;;5.72;2.20;;;;;;;;;;5095430;28;20043;-77
2023/08/08 04:53:47;;;;;;;7.10;2.30;;;;;;;;;;5060794;28;20059;-77
2023/08/08 04:56:14;;;;;;;5.88;2.10;;;;;;;;;;5095124;28;20039;-77
2023/08/08 04:58:40;;;;;;;5.72;2.15;;;;;;;;;;5077892;28;20122;-77
2023/08/08 05:01:08;;;;;;;6.55;2.40;;;;;;;;;;5076805;28;20040;-77
2023/08/08 05:03:34;;;;;;;6.15;2.53;;;;;;;;;;5095229;28;20059;-77
2023/08/08 05:06:01;;;;;;;8.40;2.42;;;;;;;;;;5040106;28;20052;-77
2023/08/08 05:08:27;;;;;;;6.88;2.25;;;;;;;;;;5075533;28;20115;-77
2023/08/08 05:10:54;;;;;;;5.95;2.10;;;;;;;;;;5056700;28;20040;-77
2023/08/08 05:13:20;;;;;;;6.63;2.33;;;;;;;;;;5057508;28;20044;-77
2023/08/08 05:15:46;;;;;;;8.43;2.42;;;;;;;;;;5039969;28;20044;-78
2023/08/08 05:18:12;;;;;;;6.97;2.50;;;;;;;;;;5074707;28;20049;-75
2023/08/08 05:20:38;;;;;;;6.00;2.22;;;;;;;;;;5073780;28;20124;-76
2023/08/08 05:23:04;;;;;;;6.38;2.60;;;;;;;;;;5077761;28;20064;-76
2023/08/08 05:25:30;;;;;;;9.98;2.63;;;;;;;;;;5056538;28;20099;-76
2023/08/08 05:27:56;;;;;;;12.07;2.85;;;;;;;;;;5074764;28;20052;-76
2023/08/08 05:30:23;;;;;;;9.48;2.50;;;;;;;;;;5074584;28;20397;-76
2023/08/08 05:32:49;;;;;;;8.07;2.53;;;;;;;;;;5079443;28;20408;-72
2023/08/08 05:35:15;;;;;;;11.27;2.40;;;;;;;;;;5076932;28;20412;-73
2023/08/08 05:37:41;;;;;;;8.20;2.10;;;;;;;;;;5075749;28;20037;-72
2023/08/08 05:40:07;;;;;;;7.80;2.20;;;;;;;;;;5083491;28;20048;-71
2023/08/08 05:42:34;;;;;;;7.07;2.90;;;;;;;;;;5081384;28;20036;-72
2023/08/08 05:45:00;;;;;;;7.78;2.20;;;;;;;;;;5093989;28;20087;-71
2023/08/08 05:47:26;;;;;;;7.68;2.30;;;;;;;;;;5069143;28;20394;-73
2023/08/08 05:49:52;;;;;;;9.60;2.80;;;;;;;;;;5054756;28;20032;-73
2023/08/08 05:52:18;;;;;;;8.98;2.55;;;;;;;;;;5074248;28;20050;-73
2023/08/08 05:54:45;;;;;;;6.82;2.13;;;;;;;;;;5058022;28;20053;-73
2023/08/08 05:57:11;;;;;;;7.18;2.20;;;;;;;;;;5082978;28;20440;-74
2023/08/08 05:59:37;;;;;;;7.28;2.28;;;;;;;;;;5073909;28;20099;-74
2023/08/08 06:02:03;;;;;;;9.80;2.33;;;;;;;;;;5055943;28;20045;-74
2023/08/08 06:04:29;;;;;;;7.60;2.20;;;;;;;;;;5073429;28;20053;-74
2023/08/08 06:06:55;;;;;;;9.27;2.05;;;;;;;;;;5056662;28;20504;-73
2023/08/08 06:09:22;;;;;;;7.57;2.42;;;;;;;;;;5055903;28;20041;-73
2023/08/08 06:11:48;;;;;;;7.72;2.10;;;;;;;;;;5073408;28;20119;-73
2023/08/08 06:14:14;;;;;;;7.93;2.25;;;;;;;;;;5073686;28;20041;-73
2023/08/08 06:16:41;;;;;;;6.07;2.10;;;;;;;;;;5055761;28;20048;-74
2023/08/08 06:19:08;;;;;;;6.90;1.90;;;;;;;;;;5073719;28;20049;-73
2023/08/08 06:21:34;;;;;;;9.15;1.95;;;;;;;;;;5073573;28;20456;-73
2023/08/08 06:24:00;;;;;;;7.05;2.00;;;;;;;;;;5064684;28;20041;-73
2023/08/08 06:26:26;;;;;;;7.57;2.00;;;;;;;;;;5073323;28;20040;-74
2023/08/08 06:28:52;;;;;;;10.63;2.17;;;;;;;;;;5073756;28;20047;-74
2023/08/08 06:31:19;;;;;;;4.97;1.90;;;;;;;;;;5073328;28;20044;-73
2023/08/08 06:33:45;;;;;;;5.30;1.98;;;;;;;;;;5073706;28;20529;-73
2023/08/08 06:36:11;;;;;;;7.35;2.00;;;;;;;;;;5073854;28;20091;-74
2023/08/08 06:38:37;;;;;;;6.28;1.92;;;;;;;;;;5073690;28;20044;-74
2023/08/08 06:41:03;;;;;;;7.95;2.28;;;;;;;;;;5073122;28;20121;-73
2023/08/08 06:43:33;;;;;;;8.32;2.20;;;;;;;;;;5055237;28;20075;-73
2023/08/08 06:45:59;;;;;;;6.90;1.98;;;;;;;;;;5060051;28;20044;-74
2023/08/08 06:48:25;;;;;;;7.20;1.90;;;;;;;;;;5075227;28;20044;-73
2023/08/08 06:50:51;;;;;;;7.78;2.20;;;;;;;;;;5092752;28;20050;-74
2023/08/08 06:53:18;;;;;;;13.95;2.50;;;;;;;;;;5088444;28;20128;-74
2023/08/08 06:55:44;;;;;;;8.13;2.17;;;;;;;;;;5056224;28;20438;-74
2023/08/08 06:58:10;;;;;;;8.60;2.00;;;;;;;;;;5073093;28;20080;-74
2023/08/08 07:00:36;;;;;;;7.47;2.10;;;;;;;;;;5090914;28;20036;-73
2023/08/08 07:03:03;;;;;;;7.32;2.10;;;;;;;;;;5091874;28;20058;-74
2023/08/08 07:05:29;;;;;;;8.05;2.00;;;;;;;;;;5090403;28;20053;-74
2023/08/08 07:07:55;;;;;;;6.28;1.80;;;;;;;;;;5056846;28;20048;-74
2023/08/08 07:10:22;;;;;;;6.47;2.00;;;;;;;;;;5092432;28;20040;-74
2023/08/08 07:12:48;;;;;;;8.73;1.90;;;;;;;;;;5074725;28;20216;-75
2023/08/08 07:15:14;;;;;;;8.18;1.90;;;;;;;;;;5074414;28;20350;-75
2023/08/08 07:17:41;;;;;;;7.07;2.22;;;;;;;;;;5091597;28;20044;-75
2023/08/08 07:20:08;;;;;;;10.57;2.20;;;;;;;;;;5092330;28;20145;-75
2023/08/08 07:22:34;;;;;;;8.25;2.17;;;;;;;;;;5090143;28;20492;-74
2023/08/08 07:25:00;;;;;;;13.90;2.50;;;;;;;;;;5053833;28;20117;-74
2023/08/08 07:27:27;;;;;;;7.35;2.10;;;;;;;;;;5071142;28;20041;-75
2023/08/08 07:29:53;;;;;;;8.82;1.95;;;;;;;;;;5070834;28;20048;-72
2023/08/08 07:32:19;;;;;;;8.48;1.98;;;;;;;;;;5061380;28;20040;-72
2023/08/08 07:34:45;;;;;;;7.68;2.13;;;;;;;;;;5076517;28;20048;-73
2023/08/08 07:37:12;;;;;;;9.32;2.08;;;;;;;;;;5056948;28;20047;-73
2023/08/08 07:39:38;;;;;;;10.00;2.22;;;;;;;;;;5084152;28;20102;-72
2023/08/08 07:42:04;;;;;;;6.72;1.80;;;;;;;;;;5086064;28;20055;-73
2023/08/08 07:44:31;;;;;;;7.70;2.03;;;;;;;;;;5086308;28;20115;-73
2023/08/08 07:46:57;;;;;;;7.90;1.90;;;;;;;;;;5071411;28;20104;-74
2023/08/08 07:49:24;;;;;;;6.72;1.98;;;;;;;;;;5071971;28;20137;-75
2023/08/08 07:51:50;;;;;;;8.40;2.13;;;;;;;;;;5081946;28;20181;-75
2023/08/08 07:54:16;;;;;;;5.97;1.70;;;;;;;;;;5092091;28;20047;-76
2023/08/08 07:56:42;;;;;;;8.25;2.00;;;;;;;;;;5091817;28;20036;-75
2023/08/08 07:59:09;;;;;;;8.13;2.30;;;;;;;;;;5091844;28;20135;-75
2023/08/08 08:01:36;;;;;;;9.50;2.00;;;;;;;;;;5081146;28;20067;-75
2023/08/08 08:04:02;;;;;;;7.95;2.08;;;;;;;;;;5080916;28;20054;-75
2023/08/08 08:06:28;;;;;;;10.73;1.88;;;;;;;;;;5095937;28;20051;-75
2023/08/08 08:08:54;;;;;;;9.60;2.10;;;;;;;;;;5095484;28;20044;-75
2023/08/08 08:11:21;;;;;;;7.68;1.90;;;;;;;;;;5093775;28;20040;-76
2023/08/08 08:13:47;;;;;;;9.32;2.08;;;;;;;;;;5089330;28;20041;-75
2023/08/08 08:16:13;;;;;;;7.32;1.70;;;;;;;;;;5057534;28;20094;-76
2023/08/08 08:18:39;;;;;;;12.13;2.35;;;;;;;;;;5075728;28;20044;-75
2023/08/08 08:21:06;;;;;;;7.57;1.80;;;;;;;;;;5041910;28;20040;-76
2023/08/08 08:23:32;;;;;;;7.25;1.80;;;;;;;;;;5089880;28;20048;-75
2023/08/08 08:25:58;;;;;;;10.43;2.13;;;;;;;;;;5076513;28;20548;-75
2023/08/08 08:28:24;;;;;;;7.53;1.88;;;;;;;;;;5095483;28;20424;-75
2023/08/08 08:30:50;;;;;;;6.80;1.88;;;;;;;;;;5094687;28;20036;-75
2023/08/08 08:33:17;;;;;;;6.60;1.80;;;;;;;;;;5072072;28;20048;-76
2023/08/08 08:35:45;;;;;;;8.70;1.98;;;;;;;;;;5071931;28;20115;-76
2023/08/08 08:38:11;;;;;;;8.98;1.70;;;;;;;;;;5071919;28;20151;-76
2023/08/08 08:40:39;;;;;;;7.45;1.90;;;;;;;;;;5085477;28;20048;-76
2023/08/08 08:43:07;;;;;;;6.88;1.80;;;;;;;;;;5075147;28;20132;-76
2023/08/08 08:45:34;;;;;;;11.07;2.20;;;;;;;;;;5071900;28;20578;-76
2023/08/08 08:48:01;;;;;;;6.38;1.60;;;;;;;;;;5072520;28;20088;-76
2023/08/08 08:50:28;;;;;;;8.32;1.70;;;;;;;;;;5057931;28;20072;-75
2023/08/08 08:52:56;;;;;;;10.23;1.95;;;;;;;;;;5068890;28;20179;-76
2023/08/08 08:55:22;;;;;;;5.25;1.88;;;;;;;;;;5076879;28;20090;-75
2023/08/08 08:57:51;;;;;;;6.28;1.88;;;;;;;;;;5077271;28;20420;-75
2023/08/08 09:00:18;;;;;;;6.07;1.85;;;;;;;;;;5093275;28;20070;-76
2023/08/08 09:02:45;;;;;;;7.22;1.70;;;;;;;;;;5056052;28;20064;-76
2023/08/08 09:05:12;;;;;;;7.03;2.10;;;;;;;;;;5068013;28;20082;-75
2023/08/08 09:07:38;;;;;;;7.95;1.67;;;;;;;;;;5093649;28;20047;-73
2023/08/08 09:10:05;;;;;;;7.93;1.58;;;;;;;;;;5090388;28;20036;-73
2023/08/08 09:12:31;;;;;;;8.80;1.80;;;;;;;;;;5047596;28;20127;-73
2023/08/08 09:14:58;;;;;;;11.10;1.67;;;;;;;;;;5087685;28;20141;-72
2023/08/08 09:17:27;;;;;;;6.57;1.63;;;;;;;;;;5089855;28;20396;-72
2023/08/08 09:19:55;;;;;;;5.35;1.52;;;;;;;;;;5080960;28;20044;-72
2023/08/08 09:22:21;;;;;;;3.58;1.33;;;;;;;;;;5094588;28;20037;-72
2023/08/08 09:24:47;;;;;;;4.63;1.60;;;;;;;;;;5086268;28;20127;-72
2023/08/08 09:27:14;;;;;;;6.97;1.73;;;;;;;;;;5076421;28;20040;-72
2023/08/08 09:29:41;;;;;;;6.45;1.40;;;;;;;;;;5062039;28;20345;-73
2023/08/08 09:32:08;;;;;;;4.53;1.58;;;;;;;;;;5073960;28;20492;-72
2023/08/08 09:34:34;;;;;;;9.52;2.03;;;;;;;;;;5089764;28;20491;-74
2023/08/08 09:37:01;;;;;;;4.93;1.30;;;;;;;;;;5093874;28;20063;-73
2023/08/08 09:39:29;;;;;;;3.60;1.40;;;;;;;;;;5094233;28;20178;-74
2023/08/08 09:41:56;;;;;;;8.90;2.03;;;;;;;;;;5093775;28;20036;-72
2023/08/08 09:44:28;;;;;;;6.95;1.60;;;;;;;;;;5094045;28;20048;-73
2023/08/08 09:46:55;;;;;;;5.13;1.50;;;;;;;;;;5083800;28;20048;-73
2023/08/08 09:49:22;;;;;;;5.25;1.60;;;;;;;;;;5074617;28;20500;-72
2023/08/08 09:51:48;;;;;;;6.18;1.67;;;;;;;;;;5093306;28;20487;-73
2023/08/08 09:54:15;;;;;;;6.63;1.60;;;;;;;;;;5088623;28;20131;-72
2023/08/08 09:56:41;;;;;;;5.18;1.50;;;;;;;;;;5075575;28;20044;-73
2023/08/08 09:59:08;;;;;;;6.00;1.48;;;;;;;;;;5043253;28;20123;-72
2023/08/08 10:01:34;;;;;;;7.72;1.80;;;;;;;;;;5093073;28;20079;-72
2023/08/08 10:04:00;;;;;;;8.63;1.80;;;;;;;;;;5074348;28;20399;-72
2023/08/08 10:06:27;;;;;;;5.95;1.60;;;;;;;;;;5093403;28;20464;-73
2023/08/08 10:08:53;;;;;;;3.97;1.30;;;;;;;;;;5084495;28;20560;-73
2023/08/08 10:11:22;;;;;;;2.88;1.30;;;;;;;;;;5086074;28;20388;-73
2023/08/08 10:13:49;;;;;;;2.40;1.27;;;;;;;;;;5083943;28;20064;-72
2023/08/08 10:16:16;;;;;;;5.25;1.42;;;;;;;;;;5072692;28;20497;-72
2023/08/08 10:18:42;;;;;;;4.85;1.60;;;;;;;;;;5073332;28;20087;-71
2023/08/08 10:21:10;;;;;;;3.95;1.45;;;;;;;;;;5072881;28;20505;-72
2023/08/08 10:23:37;;;;;;;6.38;1.73;;;;;;;;;;5055342;28;20127;-72
2023/08/08 10:26:03;;;;;;;4.93;1.33;;;;;;;;;;5072043;28;20452;-72
2023/08/08 10:28:32;;;;;;;5.20;1.55;;;;;;;;;;5072122;28;20045;-73
2023/08/08 10:31:08;;;;;;;4.07;1.50;;;;;;;;;;5072415;28;20037;-73
2023/08/08 10:33:41;;;;;;;6.43;1.80;;;;;;;;;;5072681;28;20052;-72
2023/08/08 10:36:08;;;;;;;4.82;1.65;;;;;;;;;;5072099;28;20110;-72
2023/08/08 10:38:46;;;;;;;6.13;1.60;;;;;;;;;;5072654;28;20409;-72
2023/08/08 10:41:19;;;;;;;6.43;1.65;;;;;;;;;;5054479;28;20441;-72
2023/08/08 10:43:52;;;;;;;6.68;1.70;;;;;;;;;;5073004;28;20175;-73
2023/08/08 10:46:25;;;;;;;5.53;1.80;;;;;;;;;;5072062;28;20116;-73
2023/08/08 10:48:55;;;;;;;5.72;1.70;;;;;;;;;;5073330;28;20091;-73
2023/08/08 10:51:21;;;;;;;5.15;1.50;;;;;;;;;;5075296;28;20071;-72
2023/08/08 10:53:51;;;;;;;3.78;1.50;;;;;;;;;;5077825;28;20377;-71
2023/08/08 10:56:18;;;;;;;6.05;1.70;;;;;;;;;;5074009;28;20132;-72
2023/08/08 10:58:48;;;;;;;6.53;1.98;;;;;;;;;;5072588;28;20047;-73
2023/08/08 11:01:16;;;;;;;5.70;1.50;;;;;;;;;;5071810;28;20342;-73
2023/08/08 11:03:43;;;;;;;3.85;1.30;;;;;;;;;;5054976;28;20110;-73
2023/08/08 11:06:10;;;;;;;6.30;1.55;;;;;;;;;;5091946;28;20040;-73
2023/08/08 11:08:38;;;;;;;5.60;1.50;;;;;;;;;;5092815;28;20143;-73
2023/08/08 11:11:04;;;;;;;5.75;1.65;;;;;;;;;;5090655;28;20490;-73
2023/08/08 11:13:30;;;;;;;6.82;1.70;;;;;;;;;;5090912;28;20430;-73
2023/08/08 11:15:56;;;;;;;5.57;1.58;;;;;;;;;;5091698;28;20477;-73
2023/08/08 11:18:25;;;;;;;6.65;1.67;;;;;;;;;;5074283;28;20125;-73
2023/08/08 11:20:51;;;;;;;4.00;1.77;;;;;;;;;;5091733;28;20076;-72
2023/08/08 11:23:20;;;;;;;5.82;1.60;;;;;;;;;;5090857;28;20048;-74
2023/08/08 11:25:47;;;;;;;5.30;1.58;;;;;;;;;;5091382;28;20087;-73
2023/08/08 11:28:13;;;;;;;6.25;1.60;;;;;;;;;;5091478;28;20055;-74
2023/08/08 11:30:44;;;;;;;4.40;1.48;;;;;;;;;;5071757;28;20058;-73
2023/08/08 11:33:12;;;;;;;8.07;1.60;;;;;;;;;;5091609;28;20040;-73
2023/08/08 11:35:45;;;;;;;3.97;1.50;;;;;;;;;;5089900;28;20055;-74
2023/08/08 11:38:12;;;;;;;5.00;1.50;;;;;;;;;;5086585;28;20127;-73
2023/08/08 11:40:38;;;;;;;5.22;1.50;;;;;;;;;;5092070;28;20044;-74
2023/08/08 11:43:04;;;;;;;6.43;1.75;;;;;;;;;;5091887;28;20036;-74
2023/08/08 11:45:32;;;;;;;7.70;1.55;;;;;;;;;;5090398;28;20051;-73
2023/08/08 11:47:59;;;;;;;4.88;1.38;;;;;;;;;;5070809;28;20040;-73
2023/08/08 11:50:28;;;;;;;5.45;1.60;;;;;;;;;;5090528;28;20040;-72
2023/08/08 11:52:54;;;;;;;6.80;1.38;;;;;;;;;;5091856;28;20047;-74
2023/08/08 11:55:22;;;;;;;4.25;1.50;;;;;;;;;;5091168;28;20129;-73
2023/08/08 11:57:49;;;;;;;6.13;2.47;;;;;;;;;;5072591;28;20559;-73
2023/08/08 12:00:15;;;;;;;4.38;1.58;;;;;;;;;;5073202;28;20196;-74
2023/08/08 12:02:45;;;;;;;5.05;1.70;;;;;;;;;;5073241;28;20155;-74
2023/08/08 12:05:12;;;;;;;5.68;1.40;;;;;;;;;;5077031;28;20059;-74
2023/08/08 12:07:42;;;;;;;6.10;1.45;;;;;;;;;;5052317;28;20048;-74
2023/08/08 12:10:19;;;;;;;4.15;1.23;;;;;;;;;;5057888;28;20036;-73
2023/08/08 12:12:45;;;;;;;5.28;1.67;;;;;;;;;;5091549;28;20044;-73
2023/08/08 12:15:13;;;;;;;7.53;1.60;;;;;;;;;;5090887;28;20064;-73
2023/08/08 12:17:39;;;;;;;4.03;1.30;;;;;;;;;;5090018;28;20048;-73
2023/08/08 12:20:07;;;;;;;5.68;1.50;;;;;;;;;;5073308;28;20051;-74
2023/08/08 12:22:33;;;;;;;5.72;1.50;;;;;;;;;;5092017;28;20446;-72
2023/08/08 12:24:59;;;;;;;5.90;1.63;;;;;;;;;;5073019;28;20058;-72
2023/08/08 12:27:25;;;;;;;7.53;1.67;;;;;;;;;;5073660;28;20058;-71
2023/08/08 12:29:52;;;;;;;6.93;1.60;;;;;;;;;;5091086;28;20337;-72
2023/08/08 12:32:24;;;;;;;3.22;1.40;;;;;;;;;;5071448;28;20040;-73
2023/08/08 12:34:51;;;;;;;7.00;1.70;;;;;;;;;;5090684;28;20059;-73
2023/08/08 12:37:17;;;;;;;6.00;1.45;;;;;;;;;;5090281;28;20040;-72
2023/08/08 12:39:44;;;;;;;5.22;1.70;;;;;;;;;;5072541;28;20185;-73
2023/08/08 12:42:10;;;;;;;6.20;1.52;;;;;;;;;;5091162;28;20499;-73
2023/08/08 12:44:36;;;;;;;6.35;1.63;;;;;;;;;;5073072;28;20408;-73
2023/08/08 12:47:02;;;;;;;7.20;1.77;;;;;;;;;;5090979;28;20074;-73
2023/08/08 12:49:29;;;;;;;7.80;1.60;;;;;;;;;;5072963;28;20041;-73
2023/08/08 12:51:55;;;;;;;8.10;1.50;;;;;;;;;;5069447;28;20397;-72
2023/08/08 12:54:22;;;;;;;6.45;1.58;;;;;;;;;;5055597;28;20477;-73
2023/08/08 12:56:48;;;;;;;6.47;1.50;;;;;;;;;;5037882;28;20042;-73
2023/08/08 12:59:14;;;;;;;6.28;1.60;;;;;;;;;;5089891;28;20094;-72
2023/08/08 13:01:40;;;;;;;5.85;1.45;;;;;;;;;;5060691;28;20048;-72
2023/08/08 13:04:06;;;;;;;4.30;1.55;;;;;;;;;;5079050;28;20067;-73
2023/08/08 13:06:33;;;;;;;7.82;1.95;;;;;;;;;;5088630;28;20070;-72
2023/08/08 13:09:00;;;;;;;3.85;1.40;;;;;;;;;;5076555;28;20109;-72
2023/08/08 13:11:27;;;;;;;5.72;1.50;;;;;;;;;;5092729;28;20043;-73
2023/08/08 13:13:53;;;;;;;7.72;1.65;;;;;;;;;;5084807;28;20130;-73
2023/08/08 13:16:19;;;;;;;6.75;1.73;;;;;;;;;;5076382;28;20499;-74
2023/08/08 13:18:45;;;;;;;4.40;1.80;;;;;;;;;;5095436;28;20044;-73
2023/08/08 13:21:12;;;;;;;6.47;1.75;;;;;;;;;;5063299;28;20489;-74
2023/08/08 13:23:38;;;;;;;8.20;1.70;;;;;;;;;;5062554;28;20051;-74
2023/08/08 13:26:05;;;;;;;8.48;1.88;;;;;;;;;;5075423;28;20085;-73
2023/08/08 13:28:31;;;;;;;5.47;1.73;;;;;;;;;;5094542;28;20055;-74
2023/08/08 13:30:58;;;;;;;7.25;1.92;;;;;;;;;;5075248;28;20059;-72
2023/08/08 13:33:24;;;;;;;6.38;1.70;;;;;;;;;;5065195;28;20123;-73
2023/08/08 13:35:50;;;;;;;6.18;1.50;;;;;;;;;;5083185;28;20043;-73
2023/08/08 13:38:16;;;;;;;7.75;1.90;;;;;;;;;;5077832;28;20493;-73
2023/08/08 13:40:42;;;;;;;7.55;1.67;;;;;;;;;;5075069;28;20045;-72
2023/08/08 13:43:08;;;;;;;6.05;1.65;;;;;;;;;;5075886;28;20040;-73
2023/08/08 13:45:35;;;;;;;4.70;1.52;;;;;;;;;;5087783;28;20040;-73
2023/08/08 13:48:01;;;;;;;4.30;1.58;;;;;;;;;;5094522;28;20040;-73
2023/08/08 13:50:27;;;;;;;6.40;1.67;;;;;;;;;;5093886;28;20082;-72
2023/08/08 13:52:54;;;;;;;7.18;1.60;;;;;;;;;;5074750;28;20403;-73
2023/08/08 13:55:20;;;;;;;5.35;1.50;;;;;;;;;;5093504;28;20063;-73
2023/08/08 13:57:47;;;;;;;7.30;1.80;;;;;;;;;;5076478;28;20074;-72
2023/08/08 14:00:14;;;;;;;4.90;1.50;;;;;;;;;;5093375;28;20131;-73
2023/08/08 14:02:40;;;;;;;3.75;1.50;;;;;;;;;;5092132;28;20056;-72
2023/08/08 14:05:07;;;;;;;7.30;1.70;;;;;;;;;;5093444;28;20052;-72
2023/08/08 14:07:34;;;;;;;5.90;1.48;;;;;;;;;;5094467;28;20032;-72
2023/08/08 14:10:01;;;;;;;5.93;1.60;;;;;;;;;;5095986;28;20048;-73
2023/08/08 14:12:27;;;;;;;7.95;1.63;;;;;;;;;;5080305;28;20400;-71
2023/08/08 14:14:53;;;;;;;6.13;1.60;;;;;;;;;;5099184;28;20043;-72
2023/08/08 14:17:19;;;;;;;7.82;1.75;;;;;;;;;;5094342;28;20484;-73
2023/08/08 14:19:45;;;;;;;6.45;1.70;;;;;;;;;;5093961;28;20044;-73
2023/08/08 14:22:11;;;;;;;5.75;1.40;;;;;;;;;;5093770;28;20126;-73
2023/08/08 14:24:38;;;;;;;8.25;1.80;;;;;;;;;;5093621;28;20051;-73
2023/08/08 14:27:04;;;;;;;7.65;1.85;;;;;;;;;;5093589;28;20042;-72
2023/08/08 14:29:30;;;;;;;5.55;1.58;;;;;;;;;;5094103;28;20382;-73
2023/08/08 14:31:56;;;;;;;7.07;1.50;;;;;;;;;;5093341;28;20384;-73
2023/08/08 14:34:29;;;;;;;7.30;2.03;;;;;;;;;;5093863;28;20107;-72
2023/08/08 14:36:56;;;;;;;8.52;1.80;;;;;;;;;;5093356;28;20540;-72
2023/08/08 14:39:23;;;;;;;8.23;1.63;;;;;;;;;;5075468;28;20051;-72